sensor_id;sensor_type;location;lat;lon;timestamp;temperature;humidity
44277;DHT22;29973;43.742;1.236;2022-07-03T00:00:36;17.20;99.90
44277;DHT22;29973;43.742;1.236;2022-07-03T00:03:02;17.20;99.90
44277;DHT22;29973;43.742;1.236;2022-07-03T00:05:28;17.20;99.90
44277;DHT22;29973;43.742;1.236;2022-07-03T00:07:54;17.10;99.90
44277;DHT22;29973;43.742;1.236;2022-07-03T00:10:20;17.20;99.90
44277;DHT22;29973;43.742;1.236;2022-07-03T00:12:45;17.00;99.90
44277;DHT22;29973;43.742;1.236;2022-07-03T00:15:11;16.80;99.90
44277;DHT22;29973;43.742;1.236;2022-07-03T00:17:37;16.80;99.90
44277;DHT22;29973;43.742;1.236;2022-07-03T00:20:03;16.80;99.90
44277;DHT22;29973;43.742;1.236;2022-07-03T00:22:30;16.80;99.90
44277;DHT22;29973;43.742;1.236;2022-07-03T00:25:04;16.80;99.90
44277;DHT22;29973;43.742;1.236;2022-07-03T00:27:31;16.80;99.90
44277;DHT22;29973;43.742;1.236;2022-07-03T00:29:59;16.80;99.90
44277;DHT22;29973;43.742;1.236;2022-07-03T00:32:27;16.70;99.90
44277;DHT22;29973;43.742;1.236;2022-07-03T00:34:55;16.80;99.90
44277;DHT22;29973;43.742;1.236;2022-07-03T00:37:22;16.70;99.90
44277;DHT22;29973;43.742;1.236;2022-07-03T00:39:48;16.70;99.90
44277;DHT22;29973;43.742;1.236;2022-07-03T00:42:15;16.70;99.90
44277;DHT22;29973;43.742;1.236;2022-07-03T00:44:52;16.60;99.90
44277;DHT22;29973;43.742;1.236;2022-07-03T00:47:20;16.50;99.90
44277;DHT22;29973;43.742;1.236;2022-07-03T00:49:56;16.60;99.90
44277;DHT22;29973;43.742;1.236;2022-07-03T00:52:25;16.50;99.90
44277;DHT22;29973;43.742;1.236;2022-07-03T00:54:58;16.40;99.90
44277;DHT22;29973;43.742;1.236;2022-07-03T00:57:26;16.40;99.90
44277;DHT22;29973;43.742;1.236;2022-07-03T00:59:53;16.40;99.90
44277;DHT22;29973;43.742;1.236;2022-07-03T01:02:38;16.30;99.90
44277;DHT22;29973;43.742;1.236;2022-07-03T01:05:36;16.20;99.90
44277;DHT22;29973;43.742;1.236;2022-07-03T01:08:24;16.20;99.90
44277;DHT22;29973;43.742;1.236;2022-07-03T01:11:14;16.30;99.90
44277;DHT22;29973;43.742;1.236;2022-07-03T01:17:03;16.00;99.90
44277;DHT22;29973;43.742;1.236;2022-07-03T01:26:51;16.90;99.90
44277;DHT22;29973;43.742;1.236;2022-07-03T01:29:22;16.50;99.90
44277;DHT22;29973;43.742;1.236;2022-07-03T01:31:53;16.50;99.90
44277;DHT22;29973;43.742;1.236;2022-07-03T01:34:20;16.50;99.90
44277;DHT22;29973;43.742;1.236;2022-07-03T01:36:47;16.70;99.90
44277;DHT22;29973;43.742;1.236;2022-07-03T01:39:16;16.70;99.90
44277;DHT22;29973;43.742;1.236;2022-07-03T01:41:44;16.60;99.90
44277;DHT22;29973;43.742;1.236;2022-07-03T01:44:14;16.50;99.90
44277;DHT22;29973;43.742;1.236;2022-07-03T01:46:40;16.40;99.90
44277;DHT22;29973;43.742;1.236;2022-07-03T01:49:09;16.40;99.90
44277;DHT22;29973;43.742;1.236;2022-07-03T01:51:38;16.30;99.90
44277;DHT22;29973;43.742;1.236;2022-07-03T01:54:05;16.20;99.90
44277;DHT22;29973;43.742;1.236;2022-07-03T01:56:32;16.00;99.90
44277;DHT22;29973;43.742;1.236;2022-07-03T01:59:02;16.00;99.90
44277;DHT22;29973;43.742;1.236;2022-07-03T02:01:45;16.00;99.90
44277;DHT22;29973;43.742;1.236;2022-07-03T02:04:24;15.90;99.90
44277;DHT22;29973;43.742;1.236;2022-07-03T02:09:44;15.90;99.90
44277;DHT22;29973;43.742;1.236;2022-07-03T02:12:12;15.90;99.90
44277;DHT22;29973;43.742;1.236;2022-07-03T02:14:40;15.90;99.90
44277;DHT22;29973;43.742;1.236;2022-07-03T02:17:18;15.90;99.90
44277;DHT22;29973;43.742;1.236;2022-07-03T02:20:00;16.60;99.90
44277;DHT22;29973;43.742;1.236;2022-07-03T02:22:28;16.80;99.90
44277;DHT22;29973;43.742;1.236;2022-07-03T02:25:06;17.30;99.90
44277;DHT22;29973;43.742;1.236;2022-07-03T02:27:43;17.80;99.90
44277;DHT22;29973;43.742;1.236;2022-07-03T02:30:10;18.10;99.90
44277;DHT22;29973;43.742;1.236;2022-07-03T02:32:39;18.10;99.90
44277;DHT22;29973;43.742;1.236;2022-07-03T02:35:07;18.10;99.90
44277;DHT22;29973;43.742;1.236;2022-07-03T02:37:41;18.10;99.90
44277;DHT22;29973;43.742;1.236;2022-07-03T02:40:16;18.10;99.90
44277;DHT22;29973;43.742;1.236;2022-07-03T02:42:54;18.10;99.90
44277;DHT22;29973;43.742;1.236;2022-07-03T02:45:21;18.20;99.90
44277;DHT22;29973;43.742;1.236;2022-07-03T02:48:00;18.10;99.90
44277;DHT22;29973;43.742;1.236;2022-07-03T02:50:28;18.10;99.90
44277;DHT22;29973;43.742;1.236;2022-07-03T02:53:04;17.90;99.90
44277;DHT22;29973;43.742;1.236;2022-07-03T02:55:45;17.90;99.90
44277;DHT22;29973;43.742;1.236;2022-07-03T03:01:08;17.90;99.90
44277;DHT22;29973;43.742;1.236;2022-07-03T03:03:35;17.90;99.90
44277;DHT22;29973;43.742;1.236;2022-07-03T03:06:04;18.00;99.90
44277;DHT22;29973;43.742;1.236;2022-07-03T03:08:57;17.90;99.90
44277;DHT22;29973;43.742;1.236;2022-07-03T03:11:46;17.80;99.90
44277;DHT22;29973;43.742;1.236;2022-07-03T03:14:15;17.80;99.90
44277;DHT22;29973;43.742;1.236;2022-07-03T03:16:50;17.70;99.90
44277;DHT22;29973;43.742;1.236;2022-07-03T03:19:20;17.70;99.90
44277;DHT22;29973;43.742;1.236;2022-07-03T03:24:51;17.70;99.90
44277;DHT22;29973;43.742;1.236;2022-07-03T03:27:17;17.60;99.90
44277;DHT22;29973;43.742;1.236;2022-07-03T03:29:44;17.60;99.90
44277;DHT22;29973;43.742;1.236;2022-07-03T03:32:11;17.50;99.90
44277;DHT22;29973;43.742;1.236;2022-07-03T03:34:38;17.40;99.90
44277;DHT22;29973;43.742;1.236;2022-07-03T03:37:04;17.40;99.90
44277;DHT22;29973;43.742;1.236;2022-07-03T03:39:31;17.40;99.90
44277;DHT22;29973;43.742;1.236;2022-07-03T03:41:56;17.40;99.90
44277;DHT22;29973;43.742;1.236;2022-07-03T03:44:22;17.40;99.90
44277;DHT22;29973;43.742;1.236;2022-07-03T03:46:50;17.40;99.90
44277;DHT22;29973;43.742;1.236;2022-07-03T03:49:16;17.40;99.90
44277;DHT22;29973;43.742;1.236;2022-07-03T03:51:41;17.40;99.90
44277;DHT22;29973;43.742;1.236;2022-07-03T03:54:07;17.40;99.90
44277;DHT22;29973;43.742;1.236;2022-07-03T03:56:33;17.30;99.90
44277;DHT22;29973;43.742;1.236;2022-07-03T03:58:58;17.40;99.90
44277;DHT22;29973;43.742;1.236;2022-07-03T04:01:24;17.30;99.90
44277;DHT22;29973;43.742;1.236;2022-07-03T04:03:50;17.30;99.90
44277;DHT22;29973;43.742;1.236;2022-07-03T04:06:15;17.30;99.90
44277;DHT22;29973;43.742;1.236;2022-07-03T04:08:43;17.30;99.90
44277;DHT22;29973;43.742;1.236;2022-07-03T04:11:09;17.30;99.90
44277;DHT22;29973;43.742;1.236;2022-07-03T04:13:35;17.20;99.90
44277;DHT22;29973;43.742;1.236;2022-07-03T04:16:01;17.20;99.90
44277;DHT22;29973;43.742;1.236;2022-07-03T04:18:26;17.20;99.90
44277;DHT22;29973;43.742;1.236;2022-07-03T04:20:52;17.10;99.90
44277;DHT22;29973;43.742;1.236;2022-07-03T04:23:18;17.10;99.90
44277;DHT22;29973;43.742;1.236;2022-07-03T04:25:44;17.10;99.90
44277;DHT22;29973;43.742;1.236;2022-07-03T04:28:10;17.10;99.90
44277;DHT22;29973;43.742;1.236;2022-07-03T04:30:35;17.00;99.90
44277;DHT22;29973;43.742;1.236;2022-07-03T04:33:01;17.10;99.90
44277;DHT22;29973;43.742;1.236;2022-07-03T04:35:27;17.00;99.90
44277;DHT22;29973;43.742;1.236;2022-07-03T04:37:52;17.00;99.90
44277;DHT22;29973;43.742;1.236;2022-07-03T04:40:18;17.10;99.90
44277;DHT22;29973;43.742;1.236;2022-07-03T04:42:44;17.00;99.90
44277;DHT22;29973;43.742;1.236;2022-07-03T04:45:10;17.10;99.90
44277;DHT22;29973;43.742;1.236;2022-07-03T04:47:35;17.20;99.90
44277;DHT22;29973;43.742;1.236;2022-07-03T04:50:01;17.10;99.90
44277;DHT22;29973;43.742;1.236;2022-07-03T04:52:27;17.10;99.90
44277;DHT22;29973;43.742;1.236;2022-07-03T04:54:53;17.00;99.90
44277;DHT22;29973;43.742;1.236;2022-07-03T04:57:18;17.10;99.90
44277;DHT22;29973;43.742;1.236;2022-07-03T04:59:44;17.20;99.90
44277;DHT22;29973;43.742;1.236;2022-07-03T05:02:12;17.20;99.90
44277;DHT22;29973;43.742;1.236;2022-07-03T05:04:37;17.20;99.90
44277;DHT22;29973;43.742;1.236;2022-07-03T05:07:03;17.30;99.90
44277;DHT22;29973;43.742;1.236;2022-07-03T05:09:29;17.30;99.90
44277;DHT22;29973;43.742;1.236;2022-07-03T05:11:55;17.30;99.90
44277;DHT22;29973;43.742;1.236;2022-07-03T05:14:21;17.40;99.90
44277;DHT22;29973;43.742;1.236;2022-07-03T05:16:46;17.40;99.90
44277;DHT22;29973;43.742;1.236;2022-07-03T05:19:12;17.50;99.90
44277;DHT22;29973;43.742;1.236;2022-07-03T05:21:38;17.50;99.90
44277;DHT22;29973;43.742;1.236;2022-07-03T05:24:04;17.50;99.90
44277;DHT22;29973;43.742;1.236;2022-07-03T05:26:29;17.60;99.90
44277;DHT22;29973;43.742;1.236;2022-07-03T05:28:55;17.60;99.90
44277;DHT22;29973;43.742;1.236;2022-07-03T05:31:21;17.70;99.90
44277;DHT22;29973;43.742;1.236;2022-07-03T05:33:46;17.70;99.90
44277;DHT22;29973;43.742;1.236;2022-07-03T05:36:12;17.80;99.90
44277;DHT22;29973;43.742;1.236;2022-07-03T05:38:38;17.80;99.90
44277;DHT22;29973;43.742;1.236;2022-07-03T05:41:22;17.90;99.90
44277;DHT22;29973;43.742;1.236;2022-07-03T05:43:48;17.90;99.90
44277;DHT22;29973;43.742;1.236;2022-07-03T05:46:14;17.90;99.90
44277;DHT22;29973;43.742;1.236;2022-07-03T05:48:40;18.00;99.90
44277;DHT22;29973;43.742;1.236;2022-07-03T05:51:05;18.10;99.90
44277;DHT22;29973;43.742;1.236;2022-07-03T05:53:31;18.10;99.90
44277;DHT22;29973;43.742;1.236;2022-07-03T05:55:58;18.10;99.90
44277;DHT22;29973;43.742;1.236;2022-07-03T05:58:24;18.20;99.90
44277;DHT22;29973;43.742;1.236;2022-07-03T06:00:50;18.30;99.90
44277;DHT22;29973;43.742;1.236;2022-07-03T06:03:15;18.40;99.90
44277;DHT22;29973;43.742;1.236;2022-07-03T06:05:41;18.40;99.90
44277;DHT22;29973;43.742;1.236;2022-07-03T06:08:07;18.50;99.90
44277;DHT22;29973;43.742;1.236;2022-07-03T06:10:32;18.50;99.90
44277;DHT22;29973;43.742;1.236;2022-07-03T06:12:58;18.60;99.90
44277;DHT22;29973;43.742;1.236;2022-07-03T06:15:24;18.60;99.90
44277;DHT22;29973;43.742;1.236;2022-07-03T06:17:50;18.70;99.90
44277;DHT22;29973;43.742;1.236;2022-07-03T06:20:17;18.70;99.90
44277;DHT22;29973;43.742;1.236;2022-07-03T06:22:43;18.90;99.90
44277;DHT22;29973;43.742;1.236;2022-07-03T06:25:08;18.90;99.90
44277;DHT22;29973;43.742;1.236;2022-07-03T06:27:34;19.00;99.90
44277;DHT22;29973;43.742;1.236;2022-07-03T06:30:00;19.10;99.90
44277;DHT22;29973;43.742;1.236;2022-07-03T06:32:26;19.20;99.90
44277;DHT22;29973;43.742;1.236;2022-07-03T06:34:52;19.30;99.90
44277;DHT22;29973;43.742;1.236;2022-07-03T06:37:18;19.20;99.90
44277;DHT22;29973;43.742;1.236;2022-07-03T06:39:44;19.20;99.90
44277;DHT22;29973;43.742;1.236;2022-07-03T06:42:09;19.30;99.90
44277;DHT22;29973;43.742;1.236;2022-07-03T06:44:35;19.30;99.90
44277;DHT22;29973;43.742;1.236;2022-07-03T06:47:01;19.40;99.90
44277;DHT22;29973;43.742;1.236;2022-07-03T06:49:32;19.60;99.90
44277;DHT22;29973;43.742;1.236;2022-07-03T06:51:58;19.60;99.90
44277;DHT22;29973;43.742;1.236;2022-07-03T06:54:23;19.60;99.90
44277;DHT22;29973;43.742;1.236;2022-07-03T06:56:49;19.60;99.90
44277;DHT22;29973;43.742;1.236;2022-07-03T06:59:18;19.60;99.90
44277;DHT22;29973;43.742;1.236;2022-07-03T07:01:44;19.60;99.90
44277;DHT22;29973;43.742;1.236;2022-07-03T07:04:10;20.00;99.90
44277;DHT22;29973;43.742;1.236;2022-07-03T07:06:36;20.20;99.90
44277;DHT22;29973;43.742;1.236;2022-07-03T07:09:03;20.20;99.90
44277;DHT22;29973;43.742;1.236;2022-07-03T07:11:28;20.10;99.90
44277;DHT22;29973;43.742;1.236;2022-07-03T07:13:54;20.10;99.90
44277;DHT22;29973;43.742;1.236;2022-07-03T07:16:20;20.00;99.90
44277;DHT22;29973;43.742;1.236;2022-07-03T07:18:46;20.10;99.90
44277;DHT22;29973;43.742;1.236;2022-07-03T07:21:11;20.20;99.90
44277;DHT22;29973;43.742;1.236;2022-07-03T07:23:37;20.30;99.90
44277;DHT22;29973;43.742;1.236;2022-07-03T07:26:03;20.60;99.90
44277;DHT22;29973;43.742;1.236;2022-07-03T07:28:29;20.60;99.90
44277;DHT22;29973;43.742;1.236;2022-07-03T07:30:56;20.80;99.90
44277;DHT22;29973;43.742;1.236;2022-07-03T07:33:23;20.90;99.90
44277;DHT22;29973;43.742;1.236;2022-07-03T07:35:49;20.90;99.90
44277;DHT22;29973;43.742;1.236;2022-07-03T07:38:16;20.80;99.90
44277;DHT22;29973;43.742;1.236;2022-07-03T07:40:42;20.90;99.90
44277;DHT22;29973;43.742;1.236;2022-07-03T07:43:07;20.90;99.90
44277;DHT22;29973;43.742;1.236;2022-07-03T07:45:33;21.10;99.90
44277;DHT22;29973;43.742;1.236;2022-07-03T07:47:59;21.00;99.90
44277;DHT22;29973;43.742;1.236;2022-07-03T07:50:25;20.90;99.90
44277;DHT22;29973;43.742;1.236;2022-07-03T07:52:51;21.30;99.90
44277;DHT22;29973;43.742;1.236;2022-07-03T07:55:17;21.40;99.90
44277;DHT22;29973;43.742;1.236;2022-07-03T07:57:43;21.40;99.90
44277;DHT22;29973;43.742;1.236;2022-07-03T08:00:12;21.40;99.90
44277;DHT22;29973;43.742;1.236;2022-07-03T08:02:38;21.10;99.90
44277;DHT22;29973;43.742;1.236;2022-07-03T08:05:23;21.30;99.90
44277;DHT22;29973;43.742;1.236;2022-07-03T08:10:40;21.90;99.90
44277;DHT22;29973;43.742;1.236;2022-07-03T08:13:06;22.00;99.90
44277;DHT22;29973;43.742;1.236;2022-07-03T08:15:32;21.90;99.90
44277;DHT22;29973;43.742;1.236;2022-07-03T08:17:58;22.10;99.90
44277;DHT22;29973;43.742;1.236;2022-07-03T08:20:24;21.80;99.90
44277;DHT22;29973;43.742;1.236;2022-07-03T08:22:50;22.00;99.90
44277;DHT22;29973;43.742;1.236;2022-07-03T08:25:16;22.10;99.90
44277;DHT22;29973;43.742;1.236;2022-07-03T08:27:41;22.10;99.90
44277;DHT22;29973;43.742;1.236;2022-07-03T08:30:07;22.20;99.90
44277;DHT22;29973;43.742;1.236;2022-07-03T08:32:33;22.30;99.90
44277;DHT22;29973;43.742;1.236;2022-07-03T08:34:59;22.40;99.90
44277;DHT22;29973;43.742;1.236;2022-07-03T08:37:26;22.80;99.90
44277;DHT22;29973;43.742;1.236;2022-07-03T08:39:52;22.80;99.90
44277;DHT22;29973;43.742;1.236;2022-07-03T08:42:19;23.10;99.90
44277;DHT22;29973;43.742;1.236;2022-07-03T08:44:46;23.20;99.90
44277;DHT22;29973;43.742;1.236;2022-07-03T08:47:13;22.70;99.90
44277;DHT22;29973;43.742;1.236;2022-07-03T08:49:40;22.80;99.20
44277;DHT22;29973;43.742;1.236;2022-07-03T08:52:07;22.70;99.10
44277;DHT22;29973;43.742;1.236;2022-07-03T08:54:35;23.10;99.60
44277;DHT22;29973;43.742;1.236;2022-07-03T08:57:01;23.30;98.90
44277;DHT22;29973;43.742;1.236;2022-07-03T08:59:38;23.30;98.80
44277;DHT22;29973;43.742;1.236;2022-07-03T09:02:05;23.20;98.30
44277;DHT22;29973;43.742;1.236;2022-07-03T09:04:34;23.40;98.40
44277;DHT22;29973;43.742;1.236;2022-07-03T09:07:00;23.40;97.10
44277;DHT22;29973;43.742;1.236;2022-07-03T09:09:27;23.40;97.30
44277;DHT22;29973;43.742;1.236;2022-07-03T09:11:53;23.60;98.20
44277;DHT22;29973;43.742;1.236;2022-07-03T09:14:19;23.80;97.50
44277;DHT22;29973;43.742;1.236;2022-07-03T09:16:45;23.90;96.10
44277;DHT22;29973;43.742;1.236;2022-07-03T09:19:11;23.60;97.50
44277;DHT22;29973;43.742;1.236;2022-07-03T09:21:41;23.60;96.60
44277;DHT22;29973;43.742;1.236;2022-07-03T09:24:09;23.90;96.50
44277;DHT22;29973;43.742;1.236;2022-07-03T09:26:35;23.90;96.10
44277;DHT22;29973;43.742;1.236;2022-07-03T09:29:02;23.80;96.60
44277;DHT22;29973;43.742;1.236;2022-07-03T09:31:30;23.70;96.10
44277;DHT22;29973;43.742;1.236;2022-07-03T09:34:01;23.90;96.40
44277;DHT22;29973;43.742;1.236;2022-07-03T09:36:50;24.20;95.80
44277;DHT22;29973;43.742;1.236;2022-07-03T09:39:24;24.30;95.40
44277;DHT22;29973;43.742;1.236;2022-07-03T09:44:48;24.90;94.30
44277;DHT22;29973;43.742;1.236;2022-07-03T09:47:19;24.80;95.70
44277;DHT22;29973;43.742;1.236;2022-07-03T09:49:56;24.80;93.40
44277;DHT22;29973;43.742;1.236;2022-07-03T09:54:59;25.30;93.70
44277;DHT22;29973;43.742;1.236;2022-07-03T09:57:29;25.30;93.10
44277;DHT22;29973;43.742;1.236;2022-07-03T10:00:31;25.70;92.80
44277;DHT22;29973;43.742;1.236;2022-07-03T10:03:02;25.60;92.80
44277;DHT22;29973;43.742;1.236;2022-07-03T10:05:42;25.40;92.60
44277;DHT22;29973;43.742;1.236;2022-07-03T10:08:12;25.70;91.40
44277;DHT22;29973;43.742;1.236;2022-07-03T10:10:48;25.80;92.60
44277;DHT22;29973;43.742;1.236;2022-07-03T10:13:14;25.70;91.50
44277;DHT22;29973;43.742;1.236;2022-07-03T10:15:41;26.20;92.00
44277;DHT22;29973;43.742;1.236;2022-07-03T10:18:12;26.30;91.50
44277;DHT22;29973;43.742;1.236;2022-07-03T10:20:47;26.00;91.40
44277;DHT22;29973;43.742;1.236;2022-07-03T10:23:15;26.40;89.80
44277;DHT22;29973;43.742;1.236;2022-07-03T10:25:41;26.60;91.20
44277;DHT22;29973;43.742;1.236;2022-07-03T10:28:09;26.20;91.20
44277;DHT22;29973;43.742;1.236;2022-07-03T10:30:36;26.00;90.80
44277;DHT22;29973;43.742;1.236;2022-07-03T10:33:02;25.80;91.30
44277;DHT22;29973;43.742;1.236;2022-07-03T10:35:33;26.20;90.50
44277;DHT22;29973;43.742;1.236;2022-07-03T10:43:27;26.60;91.40
44277;DHT22;29973;43.742;1.236;2022-07-03T10:46:22;27.00;90.10
44277;DHT22;29973;43.742;1.236;2022-07-03T10:49:00;26.80;86.90
44277;DHT22;29973;43.742;1.236;2022-07-03T10:51:31;26.40;89.20
44277;DHT22;29973;43.742;1.236;2022-07-03T11:02:43;27.50;81.00
44277;DHT22;29973;43.742;1.236;2022-07-03T11:05:16;27.60;84.30
44277;DHT22;29973;43.742;1.236;2022-07-03T11:15:38;27.90;78.90
44277;DHT22;29973;43.742;1.236;2022-07-03T11:25:49;29.10;77.30
44277;DHT22;29973;43.742;1.236;2022-07-03T11:33:46;28.90;74.30
44277;DHT22;29973;43.742;1.236;2022-07-03T11:38:43;28.70;74.30
44277;DHT22;29973;43.742;1.236;2022-07-03T11:41:11;28.70;74.40
44277;DHT22;29973;43.742;1.236;2022-07-03T11:43:38;29.40;73.80
44277;DHT22;29973;43.742;1.236;2022-07-03T11:46:15;30.10;70.90
44277;DHT22;29973;43.742;1.236;2022-07-03T11:48:42;30.60;72.60
44277;DHT22;29973;43.742;1.236;2022-07-03T11:51:07;30.70;64.80
44277;DHT22;29973;43.742;1.236;2022-07-03T11:53:35;31.90;61.50
44277;DHT22;29973;43.742;1.236;2022-07-03T11:56:09;32.30;64.00
44277;DHT22;29973;43.742;1.236;2022-07-03T12:01:12;34.50;55.80
44277;DHT22;29973;43.742;1.236;2022-07-03T12:03:52;33.50;56.20
44277;DHT22;29973;43.742;1.236;2022-07-03T12:06:20;32.30;57.50
44277;DHT22;29973;43.742;1.236;2022-07-03T12:08:46;32.90;55.50
44277;DHT22;29973;43.742;1.236;2022-07-03T12:11:16;34.90;50.50
44277;DHT22;29973;43.742;1.236;2022-07-03T12:13:43;33.70;53.80
44277;DHT22;29973;43.742;1.236;2022-07-03T12:16:10;33.60;52.40
44277;DHT22;29973;43.742;1.236;2022-07-03T12:18:52;33.20;55.40
44277;DHT22;29973;43.742;1.236;2022-07-03T12:21:23;34.50;52.50
44277;DHT22;29973;43.742;1.236;2022-07-03T12:23:51;35.40;49.50
44277;DHT22;29973;43.742;1.236;2022-07-03T12:26:31;35.90;49.70
44277;DHT22;29973;43.742;1.236;2022-07-03T12:28:58;35.40;46.50
44277;DHT22;29973;43.742;1.236;2022-07-03T12:31:25;36.50;51.00
44277;DHT22;29973;43.742;1.236;2022-07-03T12:33:51;35.70;46.80
44277;DHT22;29973;43.742;1.236;2022-07-03T12:36:17;35.60;49.00
44277;DHT22;29973;43.742;1.236;2022-07-03T12:38:48;36.20;45.80
44277;DHT22;29973;43.742;1.236;2022-07-03T12:41:15;35.60;47.50
44277;DHT22;29973;43.742;1.236;2022-07-03T12:43:42;35.10;44.50
44277;DHT22;29973;43.742;1.236;2022-07-03T12:56:43;36.00;47.50
44277;DHT22;29973;43.742;1.236;2022-07-03T12:59:26;38.40;44.40
44277;DHT22;29973;43.742;1.236;2022-07-03T13:02:03;38.50;40.90
44277;DHT22;29973;43.742;1.236;2022-07-03T13:04:34;37.20;44.70
44277;DHT22;29973;43.742;1.236;2022-07-03T13:07:04;37.40;42.50
44277;DHT22;29973;43.742;1.236;2022-07-03T13:09:31;38.70;40.20
44277;DHT22;29973;43.742;1.236;2022-07-03T13:11:57;38.10;41.80
44277;DHT22;29973;43.742;1.236;2022-07-03T13:14:23;39.40;42.80
44277;DHT22;29973;43.742;1.236;2022-07-03T13:16:54;38.50;39.80
44277;DHT22;29973;43.742;1.236;2022-07-03T13:19:25;37.80;42.70
44277;DHT22;29973;43.742;1.236;2022-07-03T13:21:55;38.90;41.20
44277;DHT22;29973;43.742;1.236;2022-07-03T13:24:21;39.10;38.70
44277;DHT22;29973;43.742;1.236;2022-07-03T13:26:48;39.70;36.60
44277;DHT22;29973;43.742;1.236;2022-07-03T13:29:14;39.80;38.20
44277;DHT22;29973;43.742;1.236;2022-07-03T13:31:40;37.60;35.60
44277;DHT22;29973;43.742;1.236;2022-07-03T13:34:06;37.70;38.70
44277;DHT22;29973;43.742;1.236;2022-07-03T13:36:33;38.80;40.90
44277;DHT22;29973;43.742;1.236;2022-07-03T13:38:59;38.60;38.20
44277;DHT22;29973;43.742;1.236;2022-07-03T13:41:25;38.50;36.80
44277;DHT22;29973;43.742;1.236;2022-07-03T13:43:51;38.20;37.20
44277;DHT22;29973;43.742;1.236;2022-07-03T13:46:18;37.90;37.60
44277;DHT22;29973;43.742;1.236;2022-07-03T13:48:44;39.40;38.00
44277;DHT22;29973;43.742;1.236;2022-07-03T13:51:10;37.20;39.50
44277;DHT22;29973;43.742;1.236;2022-07-03T13:53:37;35.80;44.30
44277;DHT22;29973;43.742;1.236;2022-07-03T13:56:03;37.50;40.60
44277;DHT22;29973;43.742;1.236;2022-07-03T13:58:28;37.10;41.20
44277;DHT22;29973;43.742;1.236;2022-07-03T14:00:54;38.70;40.10
44277;DHT22;29973;43.742;1.236;2022-07-03T14:03:20;37.40;38.20
44277;DHT22;29973;43.742;1.236;2022-07-03T14:05:47;39.20;38.90
44277;DHT22;29973;43.742;1.236;2022-07-03T14:08:19;38.20;36.60
44277;DHT22;29973;43.742;1.236;2022-07-03T14:10:45;37.70;40.00
44277;DHT22;29973;43.742;1.236;2022-07-03T14:13:11;39.00;39.20
44277;DHT22;29973;43.742;1.236;2022-07-03T14:15:37;40.60;34.60
44277;DHT22;29973;43.742;1.236;2022-07-03T14:18:03;40.50;34.80
44277;DHT22;29973;43.742;1.236;2022-07-03T14:20:29;40.60;35.80
44277;DHT22;29973;43.742;1.236;2022-07-03T14:22:55;40.90;35.10
44277;DHT22;29973;43.742;1.236;2022-07-03T14:25:21;41.00;33.40
44277;DHT22;29973;43.742;1.236;2022-07-03T14:27:46;37.40;36.00
44277;DHT22;29973;43.742;1.236;2022-07-03T14:30:30;37.30;41.60
44277;DHT22;29973;43.742;1.236;2022-07-03T14:33:15;37.30;38.50
44277;DHT22;29973;43.742;1.236;2022-07-03T14:35:40;38.00;38.60
44277;DHT22;29973;43.742;1.236;2022-07-03T14:38:06;38.90;37.00
44277;DHT22;29973;43.742;1.236;2022-07-03T14:40:32;39.30;37.00
44277;DHT22;29973;43.742;1.236;2022-07-03T14:42:58;40.50;38.20
44277;DHT22;29973;43.742;1.236;2022-07-03T14:45:24;39.00;34.40
44277;DHT22;29973;43.742;1.236;2022-07-03T14:47:50;37.20;39.40
44277;DHT22;29973;43.742;1.236;2022-07-03T14:50:16;37.30;38.20
44277;DHT22;29973;43.742;1.236;2022-07-03T14:52:42;37.60;37.30
44277;DHT22;29973;43.742;1.236;2022-07-03T14:55:08;35.90;39.60
44277;DHT22;29973;43.742;1.236;2022-07-03T14:57:47;35.80;40.80
44277;DHT22;29973;43.742;1.236;2022-07-03T15:00:13;36.50;38.30
44277;DHT22;29973;43.742;1.236;2022-07-03T15:05:27;37.90;37.40
44277;DHT22;29973;43.742;1.236;2022-07-03T15:08:58;37.40;38.80
44277;DHT22;29973;43.742;1.236;2022-07-03T15:10:54;39.90;35.40
44277;DHT22;29973;43.742;1.236;2022-07-03T15:13:20;41.50;32.50
44277;DHT22;29973;43.742;1.236;2022-07-03T15:15:48;42.30;31.40
44277;DHT22;29973;43.742;1.236;2022-07-03T15:18:17;41.40;29.20
44277;DHT22;29973;43.742;1.236;2022-07-03T15:20:44;38.10;33.40
44277;DHT22;29973;43.742;1.236;2022-07-03T15:23:10;37.50;36.20
44277;DHT22;29973;43.742;1.236;2022-07-03T15:25:37;36.20;40.20
44277;DHT22;29973;43.742;1.236;2022-07-03T15:28:08;34.80;44.50
44277;DHT22;29973;43.742;1.236;2022-07-03T15:30:34;33.90;49.60
44277;DHT22;29973;43.742;1.236;2022-07-03T15:32:59;33.40;52.90
44277;DHT22;29973;43.742;1.236;2022-07-03T15:35:26;32.50;54.30
44277;DHT22;29973;43.742;1.236;2022-07-03T15:43:49;31.70;58.90
44277;DHT22;29973;43.742;1.236;2022-07-03T15:46:41;31.00;57.20
44277;DHT22;29973;43.742;1.236;2022-07-03T15:49:19;30.80;55.20
44277;DHT22;29973;43.742;1.236;2022-07-03T15:51:56;31.40;58.80
44277;DHT22;29973;43.742;1.236;2022-07-03T15:54:31;31.00;54.50
44277;DHT22;29973;43.742;1.236;2022-07-03T15:57:03;30.80;55.60
44277;DHT22;29973;43.742;1.236;2022-07-03T15:59:35;30.60;58.70
44277;DHT22;29973;43.742;1.236;2022-07-03T16:02:03;30.50;59.60
44277;DHT22;29973;43.742;1.236;2022-07-03T16:05:06;30.00;64.40
44277;DHT22;29973;43.742;1.236;2022-07-03T16:07:35;29.50;64.60
44277;DHT22;29973;43.742;1.236;2022-07-03T16:10:05;29.20;68.60
44277;DHT22;29973;43.742;1.236;2022-07-03T16:12:31;29.00;67.90
44277;DHT22;29973;43.742;1.236;2022-07-03T16:14:57;28.70;70.70
44277;DHT22;29973;43.742;1.236;2022-07-03T16:17:25;28.60;73.60
44277;DHT22;29973;43.742;1.236;2022-07-03T16:19:51;28.40;71.20
44277;DHT22;29973;43.742;1.236;2022-07-03T16:22:18;28.10;76.30
44277;DHT22;29973;43.742;1.236;2022-07-03T16:24:45;27.90;76.00
44277;DHT22;29973;43.742;1.236;2022-07-03T16:27:14;27.80;75.20
44277;DHT22;29973;43.742;1.236;2022-07-03T16:29:41;27.80;72.90
44277;DHT22;29973;43.742;1.236;2022-07-03T16:32:15;27.90;78.10
44277;DHT22;29973;43.742;1.236;2022-07-03T16:37:30;27.30;77.20
44277;DHT22;29973;43.742;1.236;2022-07-03T16:40:01;27.10;80.80
44277;DHT22;29973;43.742;1.236;2022-07-03T16:42:31;26.80;81.60
44277;DHT22;29973;43.742;1.236;2022-07-03T16:45:09;26.80;81.50
44277;DHT22;29973;43.742;1.236;2022-07-03T16:47:41;26.80;73.90
44277;DHT22;29973;43.742;1.236;2022-07-03T16:50:10;26.70;74.70
44277;DHT22;29973;43.742;1.236;2022-07-03T16:52:37;26.50;78.00
44277;DHT22;29973;43.742;1.236;2022-07-03T16:55:07;26.40;80.30
44277;DHT22;29973;43.742;1.236;2022-07-03T16:57:33;26.10;82.70
44277;DHT22;29973;43.742;1.236;2022-07-03T16:59:59;25.60;81.80
44277;DHT22;29973;43.742;1.236;2022-07-03T17:02:25;26.10;75.80
44277;DHT22;29973;43.742;1.236;2022-07-03T17:04:54;26.20;71.20
44277;DHT22;29973;43.742;1.236;2022-07-03T17:07:20;26.20;77.70
44277;DHT22;29973;43.742;1.236;2022-07-03T17:09:46;26.30;73.30